Etusivu
METAR-TAF:

METAR-TAF

Lentoasemat :

St. George’s, Grenada

Leveyspiiri: 12-00N, Pituuspiiri: 061-47W, korkeus merenpinnasta: 6 m

Tämänhetkinen sää

Tämä raportti tehtiin 30 minuuttia sitten, kello 17.00 UTC
Tuuli 11 kn idästä/kaakosta
Lämpötila 31°C
Kosteus 71%
Ilmanpaine 1013 hPa
Näkyvyys 10 km tai enemmän
Muutamia pilviä 2000 ft:n korkeudessa

METAR: TGPY 131700Z 12011KT 9999 FEW020 31/25 Q1013 NOSIG

Aika: 13:30 (17:30 UTC)

Sääennuste

Tämä raportti tehtiin 13 tuntia ja 30 minuuttia sitten, kello 04.00 UTC
Ennuste voimassa 13. päivästä klo 06 UTC - 14. päivään klo 06 UTC
Tuuli 8 kn idästä
Näkyvyys 10 km tai enemmän
Muutamia pilviä 1900 ft:n korkeudessa
Tulossa
13. päivästä klo 10 UTC - 13. päivään klo 12 UTC
Tuuli 15 kn idästä/kaakosta

TAF: TGPY 130400Z 1306/1406 09008KT 9999 FEW019 BECMG 1310/1312 12015KT

Säähavainnot ja -ennusteet yli 4000 lentoasemalta (METAR- ja TAF-raportit).

Käytössä olevat sääasemat on merkitty karttaan keltaisilla ja punaisilla pisteillä.

Aseta hiiri pisteen päälle nähdäksesi sääaseman nimen.

Klikkaa sitten nähdäksesi säähavainnot ja -ennusteet.

Kartan vaihtaminen: klikkaa mustalla rastilla varustettuja vihreitä pisteitä, niin voit zoomata sisään; viivalla varustettua vihreää pistettä, niin voit zoomata ulos tai vihreitä nuolia, niin pääset viereisille kartoille.


METAR-TAF: